Bei Facebook empfehlenBei Twitter postenGoogle plusPinterest

Das Wetter im Erzgebirge am 01.07.2015

Wetter und Klima am 01.07.2015 Holzhau im Erzgebirge (630m ü.NN)
Letzte gemessene Temperatur und Uhrzeit der Messung23:45:00 Uhr13.80 °C
Temperatur (Maximum / Höchstwert) und Uhrzeit der Messung15:30:00 Uhr28.10 °C
Temperatur (Minimum / Tiefstwert) und Uhrzeit der Messung05:15:009.20 °C
Errechneter Absolutwert der Temperaturschwankungen zwischen Tmin und Tmax des Tages18.90 K
Errechnete Tagesmitteltemperatur19.31146 °C
Gesamt - Niederschlag des Tages (in flüssiger Form)0.00 Liter / m²
Luftdruck (Maximum / Höchstwert) und Zeitpunkt der Messung23:45:00 Uhr1022.00 hPa
Luftdruck (Minimum / Tiefstwert) und Zeitpunkt der Messung19:30:00 Uhr1020.90 hPa
Errechneter Absolutwert der Luftdruckschwankungen des Tages1.10 hPa
Höchste gemessene Windgeschwindigkeit und Uhrzeit der Messung17:30:00 Uhr11.88 km/h
Errechnete Windhäufigkeit in Relation zu den Messwerten des Tages5.20833 %
Niedrigste Windkühle (Windchill) und Zeitpunkt der Messung05:15:00 Uhr9.20 °C
Taupunkt (Maximum / Höchstwert) und Uhrzeit der Messung11:45:00 Uhr15.20 °C
Taupunkt (Minimum / Tiefstwert) und Uhrzeit der Messung05:00:007.30 °C
Anzahl der automatisch eingelesenen Messwerte 96

Detaillierte Wetter- und Klima- Messwerte für den 01.07.2015 in Holzhau im Erzgebirge (630m ü.NN)
ZeitTemperaturLuftdruckRel. LuftfeuchteWindWindrichtungWindchillTaupunktNiederschlag l/m²
23:45:0013.80 °C1022.00 hPa79.00 %10.20 °C 
23:30:0014.10 °C1021.90 hPa78.00 %10.30 °C 
23:15:0014.50 °C1022.00 hPa77.00 %10.50 °C 
23:00:0014.90 °C1021.80 hPa76.00 %10.70 °C 
22:45:0015.10 °C1021.90 hPa75.00 %10.70 °C 
22:30:0015.30 °C1021.90 hPa74.00 %10.70 °C 
22:15:0015.60 °C1021.80 hPa72.00 %10.60 °C 
22:00:0016.10 °C1021.80 hPa70.00 %10.60 °C 
21:45:0016.80 °C1021.30 hPa68.00 %10.90 °C 
21:30:0017.80 °C1021.30 hPa65.00 %11.10 °C 
21:15:0018.80 °C1021.30 hPa62.00 %11.40 °C 
21:00:0020.10 °C1021.20 hPa58.00 %11.60 °C 
20:45:0021.60 °C1021.00 hPa53.00 %11.60 °C 
20:30:0022.30 °C1021.10 hPa51.00 %11.70 °C 
20:15:0023.10 °C1021.10 hPa50.00 %12.10 °C 
20:00:0023.90 °C1021.00 hPa48.00 %12.20 °C 
19:45:0024.80 °C1021.10 hPa46.00 %12.40 °C 
19:30:0025.10 °C1020.90 hPa47.00 %13.00 °C 
19:15:0025.30 °C1021.00 hPa46.00 %12.90 °C 
19:00:0025.40 °C1021.20 hPa44.00 %12.30 °C 
18:45:0025.90 °C1021.20 hPa44.00 %12.70 °C 
18:30:0026.50 °C1021.20 hPa44.00 %13.30 °C 
18:15:0026.60 °C1021.20 hPa44.00 %13.30 °C 
18:00:0026.80 °C1021.00 hPa43.00 %2.52 km/hOSO26.80 °C13.20 °C 
17:45:0026.90 °C1021.10 hPa44.00 %13.60 °C 
17:30:0026.80 °C1021.10 hPa43.00 %11.88 km/hSO28.70 °C13.20 °C 
17:15:0027.10 °C1021.10 hPa43.00 %13.40 °C 
17:00:0027.40 °C1021.30 hPa44.00 %3.60 km/hNNO27.40 °C14.10 °C 
16:45:0027.10 °C1021.10 hPa44.00 %13.80 °C 
16:30:0027.40 °C1021.30 hPa42.00 %13.40 °C 
16:15:0027.70 °C1021.20 hPa44.00 %14.30 °C 
16:00:0027.60 °C1021.10 hPa42.00 %13.50 °C 
15:45:0028.00 °C1021.20 hPa42.00 %13.90 °C 
15:30:0028.10 °C1021.40 hPa44.00 %4.68 km/hO28.10 °C14.70 °C 
15:15:0027.80 °C1021.20 hPa45.00 %14.80 °C 
15:00:0027.20 °C1021.10 hPa46.00 %14.60 °C 
14:45:0026.60 °C1021.30 hPa45.00 %13.70 °C 
14:30:0027.60 °C1021.40 hPa46.00 %14.90 °C 
14:15:0026.90 °C1021.30 hPa48.00 %15.00 °C 
14:00:0027.40 °C1021.40 hPa45.00 %14.40 °C 
13:45:0027.10 °C1021.40 hPa46.00 %14.50 °C 
13:30:0026.30 °C1021.50 hPa48.00 %14.40 °C 
13:15:0026.30 °C1021.60 hPa48.00 %14.40 °C 
13:00:0025.60 °C1021.60 hPa50.00 %14.40 °C 
12:45:0025.80 °C1021.70 hPa50.00 %14.60 °C 
12:30:0025.60 °C1021.60 hPa50.00 %4.32 km/hN25.60 °C14.40 °C 
12:15:0025.90 °C1021.60 hPa50.00 %14.70 °C 
12:00:0025.50 °C1021.80 hPa50.00 %14.30 °C 
11:45:0026.10 °C1021.60 hPa51.00 %15.20 °C 
11:30:0024.90 °C1021.70 hPa53.00 %14.70 °C 
11:15:0023.80 °C1021.60 hPa53.00 %13.60 °C 
11:00:0024.40 °C1021.80 hPa50.00 %13.30 °C 
10:45:0025.00 °C1021.70 hPa54.00 %15.00 °C 
10:30:0024.60 °C1021.70 hPa54.00 %14.70 °C 
10:15:0024.00 °C1021.60 hPa53.00 %13.80 °C 
10:00:0023.60 °C1021.70 hPa55.00 %14.00 °C 
09:45:0023.30 °C1021.70 hPa56.00 %14.00 °C 
09:30:0023.10 °C1021.50 hPa58.00 %14.40 °C 
09:15:0022.50 °C1021.60 hPa59.00 %14.10 °C 
09:00:0022.20 °C1021.50 hPa61.00 %14.30 °C 
08:45:0021.90 °C1021.60 hPa65.00 %15.00 °C 
08:30:0022.20 °C1021.50 hPa64.00 %15.10 °C 
08:15:0021.60 °C1021.40 hPa66.00 %15.00 °C 
08:00:0020.60 °C1021.50 hPa68.00 %14.50 °C 
07:45:0019.20 °C1021.30 hPa72.00 %14.00 °C 
07:30:0017.20 °C1021.30 hPa77.00 %13.10 °C 
07:15:0014.00 °C1021.30 hPa86.00 %11.70 °C 
07:00:0011.50 °C1021.10 hPa88.00 %9.60 °C 
06:45:0010.80 °C1021.20 hPa88.00 %8.90 °C 
06:30:0010.10 °C1021.20 hPa88.00 %8.20 °C 
06:15:009.80 °C1021.20 hPa89.00 %8.10 °C 
06:00:009.60 °C1021.20 hPa89.00 %7.90 °C 
05:45:009.40 °C1021.20 hPa89.00 %7.70 °C 
05:30:009.30 °C1021.00 hPa89.00 %7.60 °C 
05:15:009.20 °C1021.00 hPa89.00 %7.50 °C 
05:00:009.20 °C1021.10 hPa88.00 %7.30 °C 
04:45:009.40 °C1021.10 hPa88.00 %7.50 °C 
04:30:009.60 °C1021.00 hPa89.00 %7.90 °C 
04:15:009.60 °C1020.90 hPa88.00 %7.70 °C 
04:00:009.50 °C1020.90 hPa88.00 %7.60 °C 
03:45:009.80 °C1020.90 hPa88.00 %7.90 °C 
03:30:009.80 °C1021.00 hPa88.00 %7.90 °C 
03:15:009.90 °C1020.90 hPa88.00 %8.00 °C 
03:00:0010.00 °C1021.00 hPa87.00 %7.90 °C 
02:45:0010.30 °C1021.10 hPa87.00 %8.20 °C 
02:30:0010.40 °C1021.20 hPa88.00 %8.50 °C 
02:15:0010.20 °C1021.10 hPa87.00 %8.10 °C 
02:00:0010.30 °C1021.00 hPa87.00 %8.20 °C 
01:45:0010.40 °C1021.00 hPa87.00 %8.30 °C 
01:30:0010.40 °C1021.00 hPa87.00 %8.30 °C 
01:15:0010.30 °C1021.10 hPa85.00 %7.90 °C 
01:00:0010.40 °C1021.20 hPa85.00 %8.00 °C 
00:45:0010.80 °C1021.20 hPa84.00 %8.20 °C 
00:30:0010.90 °C1021.40 hPa84.00 %8.30 °C 
00:15:0011.30 °C1021.40 hPa83.00 %8.50 °C 
00:00:0011.60 °C1021.20 hPa83.00 %8.80 °C 

Permanenter Link zu dieser Seite: Wetter im Erzgebirge am 01.07.2015
Performance-Info: Die Erstellung der Seite / Statistik(en) / Tabelle(n) erforderte 5 Datenbankserver-Abfrage(n) und dauerte 100 Millisekunden. (Dieser Messwert ist von der Gesamt-Auslastung des Servers abhängig.)
Erzgebirge - Wetter | Erzgebirge - Wetter (Mobilgeräte) | Komplette Klimadatenbank